createdAt,value
2023-05-19T00:01:00.924Z,4.20
2023-05-19T00:03:31.420Z,3.40
2023-05-19T00:06:02.584Z,3.90
2023-05-19T00:08:32.351Z,3.90
2023-05-19T00:11:02.090Z,4.10
2023-05-19T00:13:30.482Z,3.50
2023-05-19T00:15:59.070Z,3.30
2023-05-19T00:18:29.939Z,3.90
2023-05-19T00:20:58.482Z,3.60
2023-05-19T00:23:26.480Z,3.40
2023-05-19T00:25:54.500Z,3.60
2023-05-19T00:28:22.543Z,3.50
2023-05-19T00:30:51.705Z,3.90
2023-05-19T00:33:19.860Z,3.90
2023-05-19T00:35:48.033Z,3.90
2023-05-19T00:38:16.106Z,3.70
2023-05-19T00:40:44.697Z,4.20
2023-05-19T00:43:13.474Z,3.60
2023-05-19T00:45:41.987Z,3.50
2023-05-19T00:48:09.997Z,4.00
2023-05-19T00:50:38.813Z,3.60
2023-05-19T00:53:08.135Z,4.10
2023-05-19T00:55:40.564Z,4.10
2023-05-19T00:58:10.207Z,4.10
2023-05-19T01:00:39.944Z,3.80
2023-05-19T01:03:11.897Z,4.10
2023-05-19T01:05:42.553Z,4.00
2023-05-19T01:08:11.093Z,3.60
2023-05-19T01:10:39.263Z,4.20
2023-05-19T01:13:08.082Z,3.90
2023-05-19T01:16:07.180Z,4.00
2023-05-19T01:18:38.309Z,4.20
2023-05-19T01:21:37.243Z,4.10
2023-05-19T01:24:34.743Z,3.50
2023-05-19T01:27:33.840Z,3.70
2023-05-19T01:30:35.359Z,4.00
2023-05-19T01:33:08.838Z,3.80
2023-05-19T01:35:39.430Z,3.40
2023-05-19T01:38:13.307Z,4.90
2023-05-19T01:40:42.136Z,5.80
2023-05-19T01:43:16.286Z,5.90
2023-05-19T01:45:46.164Z,5.90
2023-05-19T01:48:15.685Z,5.30
2023-05-19T01:50:44.523Z,5.40
2023-05-19T01:53:12.810Z,4.90
2023-05-19T01:55:51.675Z,6.60
2023-05-19T01:58:44.847Z,5.20
2023-05-19T02:01:41.714Z,5.70
2023-05-19T02:04:16.023Z,5.80
2023-05-19T02:07:05.796Z,6.00
2023-05-19T02:10:05.544Z,5.90
2023-05-19T02:12:40.168Z,6.00
2023-05-19T02:15:15.921Z,6.10
2023-05-19T02:17:50.963Z,6.00
2023-05-19T02:20:19.389Z,5.80
2023-05-19T02:22:48.321Z,6.00
2023-05-19T02:25:16.631Z,5.20
2023-05-19T02:27:44.889Z,5.80
2023-05-19T02:30:13.038Z,5.50
2023-05-19T02:32:41.464Z,4.60
2023-05-19T02:35:11.031Z,4.80
2023-05-19T02:37:39.953Z,4.50
2023-05-19T02:40:09.127Z,4.50
2023-05-19T02:42:37.178Z,4.70
2023-05-19T02:45:05.751Z,4.30
2023-05-19T02:47:36.206Z,4.70
2023-05-19T02:50:06.517Z,4.40
2023-05-19T02:52:34.573Z,5.00
2023-05-19T02:55:02.763Z,4.60
2023-05-19T02:57:31.951Z,4.80
2023-05-19T03:00:00.339Z,4.90
2023-05-19T03:02:28.734Z,5.10
2023-05-19T03:04:57.096Z,4.70
2023-05-19T03:07:25.595Z,4.80
2023-05-19T03:09:53.814Z,4.70
2023-05-19T03:12:22.239Z,5.40
2023-05-19T03:14:50.813Z,4.70
2023-05-19T03:17:18.889Z,4.50
2023-05-19T03:19:47.066Z,4.40
2023-05-19T03:22:15.329Z,4.40
2023-05-19T03:24:43.297Z,4.50
2023-05-19T03:27:12.896Z,4.70
2023-05-19T03:29:41.489Z,5.10
2023-05-19T03:32:09.555Z,5.10
2023-05-19T03:34:37.933Z,5.10
2023-05-19T03:37:05.864Z,4.30
2023-05-19T03:39:34.908Z,4.60
2023-05-19T03:42:03.471Z,4.20
2023-05-19T03:44:31.543Z,4.70
2023-05-19T03:47:00.694Z,4.40
2023-05-19T03:49:49.097Z,4.40
2023-05-19T03:52:40.513Z,4.80
2023-05-19T03:55:21.579Z,4.70
2023-05-19T03:57:49.688Z,4.60
2023-05-19T04:00:18.442Z,4.10
2023-05-19T04:02:46.781Z,4.00
2023-05-19T04:05:15.710Z,4.10
2023-05-19T04:07:43.787Z,4.70
2023-05-19T04:10:12.924Z,5.50
2023-05-19T04:12:41.170Z,5.00
2023-05-19T04:15:12.098Z,5.30
2023-05-19T04:17:40.708Z,5.60
2023-05-19T04:20:10.480Z,5.50
2023-05-19T04:22:38.491Z,5.40
2023-05-19T04:25:07.700Z,5.00
2023-05-19T04:27:39.624Z,5.60
2023-05-19T04:30:08.613Z,4.60
2023-05-19T04:32:37.809Z,3.80
2023-05-19T04:35:07.040Z,4.00
2023-05-19T04:37:37.544Z,4.20
2023-05-19T04:40:11.336Z,4.20
2023-05-19T04:42:43.236Z,3.60
2023-05-19T04:45:14.356Z,3.70
2023-05-19T04:47:44.587Z,3.50
2023-05-19T04:50:13.194Z,3.30
2023-05-19T04:52:45.928Z,4.40
2023-05-19T04:55:14.246Z,4.20
2023-05-19T04:57:43.088Z,4.90
2023-05-19T05:00:15.502Z,4.00
2023-05-19T05:03:14.815Z,5.10
2023-05-19T05:05:43.028Z,4.10
2023-05-19T05:08:12.208Z,3.90
2023-05-19T05:10:42.651Z,4.00
2023-05-19T05:13:11.946Z,3.60
2023-05-19T05:15:41.274Z,4.70
2023-05-19T05:18:11.032Z,4.60
2023-05-19T05:20:39.523Z,4.50
2023-05-19T05:23:09.754Z,4.70
2023-05-19T05:25:39.085Z,4.10
2023-05-19T05:28:07.356Z,5.10
2023-05-19T05:30:36.567Z,4.90
2023-05-19T05:33:06.524Z,5.20
2023-05-19T05:35:38.364Z,5.10
2023-05-19T05:38:07.262Z,5.30
2023-05-19T05:40:35.754Z,4.30
2023-05-19T05:43:04.256Z,4.20
2023-05-19T05:45:34.308Z,4.40
2023-05-19T05:48:03.497Z,4.50
2023-05-19T05:50:32.489Z,4.80
2023-05-19T05:53:02.074Z,6.70
2023-05-19T05:55:31.412Z,5.60
2023-05-19T05:58:02.452Z,5.50
2023-05-19T06:00:31.583Z,5.00
2023-05-19T06:03:00.449Z,4.40
2023-05-19T06:05:28.817Z,4.90
2023-05-19T06:07:58.125Z,4.60
2023-05-19T06:10:28.892Z,4.70
2023-05-19T06:12:57.399Z,4.70
2023-05-19T06:15:25.571Z,4.70
2023-05-19T06:18:22.666Z,4.90
2023-05-19T06:20:51.233Z,4.10
2023-05-19T06:23:19.353Z,4.90
2023-05-19T06:25:47.700Z,4.50
2023-05-19T06:28:16.055Z,5.00
2023-05-19T06:30:45.036Z,5.10
2023-05-19T06:33:20.113Z,4.60
2023-05-19T06:35:48.344Z,4.60
2023-05-19T06:38:16.809Z,4.70
2023-05-19T06:40:44.986Z,4.30
2023-05-19T06:43:12.905Z,4.10
2023-05-19T06:46:01.700Z,4.30
2023-05-19T06:48:30.900Z,4.50
2023-05-19T06:50:59.893Z,4.20
2023-05-19T06:53:28.329Z,4.40
2023-05-19T06:55:59.933Z,4.00
2023-05-19T06:58:32.015Z,3.90
2023-05-19T07:01:00.645Z,4.80
2023-05-19T07:03:32.253Z,4.00
2023-05-19T07:06:00.539Z,4.30
2023-05-19T07:08:29.652Z,4.00
2023-05-19T07:10:58.904Z,4.40
2023-05-19T07:13:27.551Z,4.20
2023-05-19T07:15:56.499Z,4.10
2023-05-19T07:18:25.638Z,4.10
2023-05-19T07:20:54.116Z,4.80
2023-05-19T07:23:22.276Z,5.40
2023-05-19T07:25:55.204Z,4.10
2023-05-19T07:28:23.275Z,4.60
2023-05-19T07:30:52.133Z,4.60
2023-05-19T07:33:20.134Z,4.60
2023-05-19T07:35:48.764Z,4.30
2023-05-19T07:38:16.841Z,4.40
2023-05-19T07:40:44.824Z,4.30
2023-05-19T07:43:13.196Z,4.80
2023-05-19T07:45:41.346Z,4.90
2023-05-19T07:48:09.476Z,4.90
2023-05-19T07:50:37.858Z,4.20
2023-05-19T07:53:06.053Z,4.70
2023-05-19T07:55:34.207Z,4.40
2023-05-19T07:58:02.526Z,5.10
2023-05-19T08:00:31.017Z,4.70
2023-05-19T08:03:00.130Z,5.10
2023-05-19T08:05:30.084Z,5.10
2023-05-19T08:07:58.067Z,5.10
2023-05-19T08:10:26.202Z,5.60
2023-05-19T08:12:54.411Z,5.10
2023-05-19T08:15:22.521Z,5.60
2023-05-19T08:17:50.664Z,4.90
2023-05-19T08:20:19.766Z,5.30
2023-05-19T08:22:48.044Z,4.70
2023-05-19T08:25:16.036Z,4.90
2023-05-19T08:27:43.902Z,4.60
2023-05-19T08:30:12.722Z,4.90
2023-05-19T08:32:40.945Z,4.40
2023-05-19T08:35:09.767Z,5.80
2023-05-19T08:37:38.775Z,4.30
2023-05-19T08:40:09.001Z,4.70
2023-05-19T08:42:37.058Z,4.80
2023-05-19T08:45:06.019Z,4.60
2023-05-19T08:47:34.469Z,4.30
2023-05-19T08:50:07.931Z,4.80
2023-05-19T08:53:01.656Z,4.30
2023-05-19T08:55:59.187Z,4.80
2023-05-19T08:58:28.903Z,4.80
2023-05-19T09:00:59.974Z,5.50
2023-05-19T09:03:29.239Z,5.40
2023-05-19T09:05:57.889Z,6.50
2023-05-19T09:08:26.046Z,5.10
2023-05-19T09:10:54.145Z,6.00
2023-05-19T09:13:22.516Z,4.80
2023-05-19T09:15:52.966Z,4.40
2023-05-19T09:18:20.921Z,5.20
2023-05-19T09:20:49.064Z,4.00
2023-05-19T09:23:18.381Z,4.20
2023-05-19T09:25:51.140Z,4.30
2023-05-19T09:28:33.403Z,4.40
2023-05-19T09:31:03.213Z,4.40
2023-05-19T09:33:34.534Z,4.80
2023-05-19T09:36:06.201Z,4.20
2023-05-19T09:38:39.501Z,4.90
2023-05-19T09:41:09.206Z,4.80
2023-05-19T09:43:37.533Z,4.70
2023-05-19T09:46:07.574Z,5.00
2023-05-19T09:48:36.816Z,5.00
2023-05-19T09:51:08.157Z,4.80
2023-05-19T09:53:36.710Z,4.40
2023-05-19T09:56:05.526Z,4.80
2023-05-19T09:58:37.582Z,4.80
2023-05-19T10:01:06.458Z,5.00
2023-05-19T10:03:34.995Z,5.00
2023-05-19T10:06:05.658Z,6.10
2023-05-19T10:08:34.457Z,5.20
2023-05-19T10:11:03.314Z,5.10
2023-05-19T10:13:35.271Z,5.60
2023-05-19T10:18:33.925Z,5.10
2023-05-19T10:21:03.290Z,5.30
2023-05-19T10:23:31.230Z,5.50
2023-05-19T10:26:01.973Z,5.00
2023-05-19T10:28:37.279Z,5.50
2023-05-19T10:31:10.025Z,5.10
2023-05-19T10:34:13.368Z,5.40
2023-05-19T10:36:48.147Z,5.40
2023-05-19T10:39:19.401Z,5.60
2023-05-19T10:41:59.101Z,4.90
2023-05-19T10:45:02.834Z,5.20
2023-05-19T10:47:31.352Z,4.50
2023-05-19T10:50:00.816Z,4.90
2023-05-19T10:52:31.152Z,4.70
2023-05-19T10:54:59.236Z,4.70
2023-05-19T10:57:28.539Z,4.60
2023-05-19T10:59:57.576Z,5.30
2023-05-19T11:02:40.229Z,5.20
2023-05-19T11:05:10.894Z,4.60
2023-05-19T11:07:43.568Z,5.00
2023-05-19T11:10:12.537Z,4.60
2023-05-19T11:12:43.375Z,4.80
2023-05-19T11:15:15.789Z,4.80
2023-05-19T11:17:48.654Z,4.80
2023-05-19T11:20:25.738Z,5.30
2023-05-19T11:23:09.991Z,5.10
2023-05-19T11:25:51.732Z,5.40
2023-05-19T11:28:26.055Z,5.40
2023-05-19T11:30:57.897Z,5.40
2023-05-19T11:33:29.292Z,5.10
2023-05-19T11:38:30.502Z,5.10
2023-05-19T11:40:58.696Z,5.30
2023-05-19T11:43:27.108Z,5.10
2023-05-19T11:45:56.083Z,5.40
2023-05-19T11:48:26.526Z,5.10
2023-05-19T11:50:56.913Z,5.50
2023-05-19T11:53:25.013Z,5.60
2023-05-19T11:55:53.440Z,5.30
2023-05-19T11:58:26.952Z,5.80
2023-05-19T12:00:55.469Z,5.60
2023-05-19T12:03:28.794Z,5.80
2023-05-19T12:05:57.142Z,6.00
2023-05-19T12:08:25.722Z,6.10
2023-05-19T12:10:54.392Z,6.00
2023-05-19T12:13:23.163Z,6.00
2023-05-19T12:15:53.283Z,6.00
2023-05-19T12:18:21.677Z,6.50
2023-05-19T12:20:50.352Z,6.00
2023-05-19T12:23:19.194Z,6.10
2023-05-19T12:25:48.422Z,6.30
2023-05-19T12:28:16.761Z,5.90
2023-05-19T12:30:48.918Z,6.50
2023-05-19T12:33:17.377Z,6.90
2023-05-19T12:35:48.115Z,6.30
2023-05-19T12:38:16.528Z,6.40
2023-05-19T12:40:44.854Z,5.90
2023-05-19T12:43:23.099Z,6.80
2023-05-19T12:45:51.434Z,6.70
2023-05-19T12:48:23.198Z,6.70
2023-05-19T12:50:55.674Z,6.40
2023-05-19T12:53:27.873Z,7.40
2023-05-19T12:55:56.015Z,6.30
2023-05-19T12:58:24.514Z,6.30
2023-05-19T13:00:59.821Z,5.90
2023-05-19T13:03:28.308Z,6.50
2023-05-19T13:05:56.745Z,6.50
2023-05-19T13:08:24.756Z,6.60
2023-05-19T13:10:52.958Z,6.80
2023-05-19T13:13:22.072Z,6.60
2023-05-19T13:15:50.343Z,6.20
2023-05-19T13:18:18.949Z,6.90
2023-05-19T13:20:49.306Z,6.40
2023-05-19T13:23:17.394Z,6.00
2023-05-19T13:25:45.764Z,6.00
2023-05-19T13:28:13.774Z,5.30
2023-05-19T13:30:44.211Z,4.90
2023-05-19T13:33:12.674Z,5.00
2023-05-19T13:35:41.324Z,4.20
2023-05-19T13:38:10.473Z,5.30
2023-05-19T13:40:40.233Z,4.90
2023-05-19T13:43:09.383Z,5.60
2023-05-19T13:45:37.620Z,6.80
2023-05-19T13:48:07.540Z,6.70
2023-05-19T13:50:36.061Z,6.90
2023-05-19T13:53:04.302Z,6.00
2023-05-19T13:55:33.360Z,6.50
2023-05-19T13:58:01.636Z,7.30
2023-05-19T14:00:31.922Z,7.60
2023-05-19T14:03:00.583Z,7.60
2023-05-19T14:05:29.249Z,7.20
2023-05-19T14:07:58.086Z,7.60
2023-05-19T14:10:27.001Z,6.50
2023-05-19T14:13:28.963Z,6.40
2023-05-19T14:15:44.338Z,6.50
2023-05-19T14:18:12.471Z,5.80
2023-05-19T14:20:41.035Z,5.90
2023-05-19T14:23:09.390Z,6.20
2023-05-19T14:25:37.565Z,6.50
2023-05-19T14:28:05.926Z,6.10
2023-05-19T14:30:34.317Z,5.90
2023-05-19T14:33:02.904Z,5.80
2023-05-19T14:35:31.114Z,5.80
2023-05-19T14:37:59.297Z,5.70
2023-05-19T14:40:27.363Z,5.90
2023-05-19T14:42:55.671Z,6.50
2023-05-19T14:45:24.275Z,7.00
2023-05-19T14:47:52.796Z,7.00
2023-05-19T14:50:21.116Z,6.70
2023-05-19T14:52:49.120Z,6.40
2023-05-19T14:55:17.131Z,6.70
2023-05-19T14:57:46.079Z,6.20
2023-05-19T15:00:14.564Z,7.00
2023-05-19T15:02:42.787Z,7.10
2023-05-19T15:05:12.069Z,6.70
2023-05-19T15:07:40.615Z,5.90
2023-05-19T15:10:09.131Z,5.90
2023-05-19T15:12:37.649Z,7.00
2023-05-19T15:15:06.559Z,6.90
2023-05-19T15:17:34.505Z,6.80
2023-05-19T15:20:02.988Z,5.90
2023-05-19T15:22:31.159Z,5.80
2023-05-19T15:24:59.480Z,6.60
2023-05-19T15:27:27.751Z,6.60
2023-05-19T15:29:56.293Z,6.90
2023-05-19T15:32:24.460Z,5.70
2023-05-19T15:34:53.134Z,5.70
2023-05-19T15:37:21.129Z,6.00
2023-05-19T15:39:49.521Z,5.70
2023-05-19T15:42:17.519Z,6.40
2023-05-19T15:44:46.471Z,6.50
2023-05-19T15:47:14.668Z,6.80
2023-05-19T15:49:43.166Z,6.00
2023-05-19T15:52:11.289Z,5.60
2023-05-19T15:54:39.217Z,5.50
2023-05-19T15:57:07.476Z,5.60
2023-05-19T15:59:35.641Z,5.40
2023-05-19T16:02:03.938Z,5.60
2023-05-19T16:04:33.434Z,5.90
2023-05-19T16:07:01.577Z,5.90
2023-05-19T16:09:29.556Z,5.40
2023-05-19T16:11:57.995Z,5.50
2023-05-19T16:14:29.462Z,6.00
2023-05-19T16:19:26.742Z,5.70
2023-05-19T16:21:55.105Z,5.90
2023-05-19T16:24:23.172Z,6.70
2023-05-19T16:26:53.897Z,6.50
2023-05-19T16:29:22.377Z,5.90
2023-05-19T16:31:50.538Z,5.80
2023-05-19T16:34:18.571Z,6.60
2023-05-19T16:36:46.647Z,6.50
2023-05-19T16:39:14.689Z,6.30
2023-05-19T16:41:42.802Z,6.10
2023-05-19T16:44:14.457Z,7.60
2023-05-19T16:46:43.096Z,8.00
2023-05-19T16:49:11.420Z,6.70
2023-05-19T16:51:39.646Z,6.50
2023-05-19T16:54:07.798Z,6.80
2023-05-19T16:56:36.228Z,6.60
2023-05-19T16:59:04.141Z,7.00
2023-05-19T17:01:33.034Z,6.50
2023-05-19T17:04:01.313Z,6.90
2023-05-19T17:06:29.540Z,7.10
2023-05-19T17:08:57.759Z,6.70
2023-05-19T17:11:27.366Z,7.20
2023-05-19T17:13:55.399Z,6.80
2023-05-19T17:16:24.148Z,6.60
2023-05-19T17:18:52.418Z,6.50
2023-05-19T17:21:20.492Z,7.50
2023-05-19T17:23:49.619Z,7.10
2023-05-19T17:26:17.999Z,7.40
2023-05-19T17:28:46.617Z,6.70
2023-05-19T17:31:15.976Z,6.30
2023-05-19T17:33:44.403Z,6.70
2023-05-19T17:36:12.801Z,9.10
2023-05-19T17:38:42.174Z,6.90
2023-05-19T17:41:10.428Z,6.60
2023-05-19T17:43:40.288Z,7.20
2023-05-19T17:46:08.913Z,7.40
2023-05-19T17:48:37.476Z,6.70
2023-05-19T17:51:07.284Z,6.60
2023-05-19T17:53:36.592Z,6.20
2023-05-19T17:56:07.428Z,6.80
2023-05-19T17:58:36.566Z,7.00
2023-05-19T18:01:05.485Z,6.80
2023-05-19T18:03:34.267Z,7.70
2023-05-19T18:06:02.941Z,7.50
2023-05-19T18:08:32.458Z,7.70
2023-05-19T18:11:00.842Z,8.00
2023-05-19T18:13:29.020Z,7.60
2023-05-19T18:15:59.338Z,7.40
2023-05-19T18:18:27.528Z,8.10
2023-05-19T18:20:55.957Z,8.20
2023-05-19T18:23:23.971Z,8.60
2023-05-19T18:25:53.431Z,10.20
2023-05-19T18:28:21.719Z,10.80
2023-05-19T18:31:05.131Z,9.60
2023-05-19T18:33:33.450Z,9.00
2023-05-19T18:36:01.575Z,8.80
2023-05-19T18:38:29.764Z,7.80
2023-05-19T18:40:58.346Z,6.70
2023-05-19T18:43:27.269Z,5.10
2023-05-19T18:45:55.488Z,5.50
2023-05-19T18:48:25.666Z,4.40
2023-05-19T18:50:54.528Z,5.70
2023-05-19T18:53:22.835Z,5.70
2023-05-19T18:55:51.066Z,5.10
2023-05-19T18:58:19.104Z,5.10
2023-05-19T19:00:47.394Z,4.80
2023-05-19T19:03:16.214Z,5.50
2023-05-19T19:05:45.521Z,5.40
2023-05-19T19:08:13.936Z,5.30
2023-05-19T19:10:42.684Z,5.50
2023-05-19T19:13:11.150Z,4.70
2023-05-19T19:15:39.788Z,5.30
2023-05-19T19:18:08.461Z,5.20
2023-05-19T19:20:36.704Z,4.80
2023-05-19T19:23:06.892Z,5.20
2023-05-19T19:25:35.491Z,6.50
2023-05-19T19:28:03.966Z,7.30
2023-05-19T19:30:32.395Z,7.30
2023-05-19T19:33:01.095Z,7.60
2023-05-19T19:35:29.429Z,7.00
2023-05-19T19:37:58.848Z,6.30
2023-05-19T19:40:27.293Z,6.80
2023-05-19T19:42:55.380Z,7.40
2023-05-19T19:45:23.613Z,6.20
2023-05-19T19:47:51.858Z,6.40
2023-05-19T19:50:20.199Z,6.60
2023-05-19T19:52:48.480Z,6.40
2023-05-19T19:55:16.679Z,6.60
2023-05-19T19:57:47.308Z,6.70
2023-05-19T20:00:16.382Z,6.60
2023-05-19T20:03:02.830Z,6.80
2023-05-19T20:05:31.641Z,6.90
2023-05-19T20:08:00.105Z,7.00
2023-05-19T20:10:28.234Z,6.40
2023-05-19T20:12:58.955Z,6.20
2023-05-19T20:15:27.237Z,6.40
2023-05-19T20:17:55.745Z,6.60
2023-05-19T20:20:24.500Z,7.30
2023-05-19T20:22:52.406Z,6.40
2023-05-19T20:25:20.943Z,5.60
2023-05-19T20:27:49.009Z,4.30
2023-05-19T20:30:17.294Z,5.00
2023-05-19T20:32:46.980Z,4.80
2023-05-19T20:35:15.789Z,4.30
2023-05-19T20:37:43.974Z,4.50
2023-05-19T20:40:13.056Z,4.80
2023-05-19T20:42:41.526Z,4.60
2023-05-19T20:45:09.934Z,5.10
2023-05-19T20:47:38.518Z,5.30
2023-05-19T20:50:07.388Z,6.10
2023-05-19T20:52:36.234Z,10.50
2023-05-19T20:55:04.596Z,10.90
2023-05-19T20:57:32.935Z,5.80
2023-05-19T21:00:01.197Z,6.10
2023-05-19T21:02:29.437Z,5.20
2023-05-19T21:04:57.874Z,5.50
2023-05-19T21:07:26.405Z,5.90
2023-05-19T21:09:54.751Z,7.20
2023-05-19T21:12:25.429Z,7.10
2023-05-19T21:14:53.637Z,8.20
2023-05-19T21:17:21.807Z,7.40
2023-05-19T21:19:50.769Z,8.00
2023-05-19T21:22:19.418Z,8.50
2023-05-19T21:24:47.877Z,8.10
2023-05-19T21:27:16.034Z,8.70
2023-05-19T21:29:44.015Z,7.70
2023-05-19T21:32:12.479Z,8.10
2023-05-19T21:34:40.867Z,8.00
2023-05-19T21:37:08.891Z,8.20
2023-05-19T21:39:37.094Z,7.70
2023-05-19T21:42:06.601Z,8.80
2023-05-19T21:44:34.795Z,6.80
2023-05-19T21:47:03.043Z,6.30
2023-05-19T21:49:31.658Z,6.50
2023-05-19T21:51:59.995Z,6.10
2023-05-19T21:54:28.270Z,6.70
2023-05-19T21:56:56.166Z,7.30
2023-05-19T21:59:25.002Z,6.30
2023-05-19T22:01:53.269Z,7.00
2023-05-19T22:04:22.829Z,6.40
2023-05-19T22:06:51.304Z,6.10
2023-05-19T22:09:19.476Z,6.20
2023-05-19T22:11:47.526Z,6.00
2023-05-19T22:14:15.939Z,5.50
2023-05-19T22:16:44.274Z,5.70
2023-05-19T22:19:12.986Z,5.40
2023-05-19T22:21:41.457Z,4.80
2023-05-19T22:24:09.690Z,4.70
2023-05-19T22:26:38.130Z,5.00
2023-05-19T22:29:06.403Z,7.80
2023-05-19T22:31:34.385Z,9.30
2023-05-19T22:34:02.494Z,9.30
2023-05-19T22:36:31.545Z,9.30
2023-05-19T22:38:59.611Z,9.30
2023-05-19T22:41:27.693Z,8.90
2023-05-19T22:43:55.776Z,9.60
2023-05-19T22:46:23.824Z,10.10
2023-05-19T22:48:52.186Z,8.30
2023-05-19T22:51:20.382Z,8.70
2023-05-19T22:53:49.279Z,9.40
2023-05-19T22:56:17.870Z,8.90
2023-05-19T22:58:45.852Z,9.00
2023-05-19T23:01:14.117Z,8.70
2023-05-19T23:03:43.656Z,6.60
2023-05-19T23:06:11.687Z,6.20
2023-05-19T23:08:40.044Z,5.50
2023-05-19T23:11:08.441Z,5.30
2023-05-19T23:13:36.401Z,4.90
2023-05-19T23:16:06.867Z,5.20
2023-05-19T23:18:34.903Z,5.90
2023-05-19T23:21:02.921Z,10.10
2023-05-19T23:23:31.063Z,6.00
2023-05-19T23:25:59.295Z,5.40
2023-05-19T23:28:27.447Z,7.10
2023-05-19T23:30:56.721Z,5.50
2023-05-19T23:33:25.226Z,5.80
2023-05-19T23:35:54.549Z,4.80
2023-05-19T23:38:22.672Z,11.40
2023-05-19T23:40:51.231Z,9.60
2023-05-19T23:43:19.495Z,6.40
2023-05-19T23:45:47.571Z,5.20
2023-05-19T23:48:15.846Z,5.70
2023-05-19T23:50:43.943Z,4.80
2023-05-19T23:53:11.874Z,5.90
2023-05-19T23:55:40.015Z,5.50
2023-05-19T23:58:08.316Z,5.00
